createdAt,value
2023-01-17T00:02:01.095Z,2.04
2023-01-17T00:04:47.321Z,2.05
2023-01-17T00:07:34.695Z,2.07
2023-01-17T00:10:07.506Z,2.08
2023-01-17T00:12:34.989Z,2.12
2023-01-17T00:15:02.229Z,2.13
2023-01-17T00:17:30.380Z,2.15
2023-01-17T00:20:15.969Z,2.16
2023-01-17T00:23:02.671Z,2.18
2023-01-17T00:25:51.476Z,2.22
2023-01-17T00:28:18.979Z,2.26
2023-01-17T00:30:46.355Z,2.28
2023-01-17T00:33:13.606Z,2.28
2023-01-17T00:35:41.120Z,2.30
2023-01-17T00:38:16.293Z,2.32
2023-01-17T00:40:44.519Z,2.36
2023-01-17T00:43:31.793Z,2.38
2023-01-17T00:46:17.923Z,2.40
2023-01-17T00:49:04.032Z,2.42
2023-01-17T00:51:51.919Z,2.40
2023-01-17T00:54:37.434Z,2.40
2023-01-17T00:57:23.636Z,2.40
2023-01-17T01:00:09.458Z,2.41
2023-01-17T01:02:55.638Z,2.40
2023-01-17T01:05:41.909Z,2.37
2023-01-17T01:08:53.134Z,2.37
2023-01-17T01:11:39.377Z,2.36
2023-01-17T01:14:26.742Z,2.30
2023-01-17T01:17:12.118Z,2.29
2023-01-17T01:19:57.757Z,2.29
2023-01-17T01:22:43.330Z,2.27
2023-01-17T01:25:28.896Z,2.27
2023-01-17T01:28:31.025Z,2.27
2023-01-17T01:31:20.837Z,2.26
2023-01-17T01:33:48.037Z,2.25
2023-01-17T01:36:14.953Z,2.27
2023-01-17T01:38:42.151Z,2.26
2023-01-17T01:41:09.151Z,2.27
2023-01-17T01:43:48.086Z,2.29
2023-01-17T01:46:35.636Z,2.33
2023-01-17T01:49:06.719Z,2.34
2023-01-17T01:51:35.677Z,2.34
2023-01-17T01:54:08.004Z,2.32
2023-01-17T01:56:35.215Z,2.32
2023-01-17T01:59:04.497Z,2.32
2023-01-17T02:01:35.755Z,2.31
2023-01-17T02:04:03.431Z,2.31
2023-01-17T02:06:31.803Z,2.27
2023-01-17T02:09:02.102Z,2.27
2023-01-17T02:11:29.102Z,2.29
2023-01-17T02:13:56.119Z,2.32
2023-01-17T02:16:29.071Z,2.32
2023-01-17T02:19:22.314Z,2.26
2023-01-17T02:21:55.171Z,2.31
2023-01-17T02:24:59.233Z,2.29
2023-01-17T02:27:28.936Z,2.28
2023-01-17T02:30:20.935Z,2.30
2023-01-17T02:32:52.659Z,2.33
2023-01-17T02:35:36.934Z,2.31
2023-01-17T02:38:18.857Z,2.28
2023-01-17T02:40:47.534Z,2.30
2023-01-17T02:43:16.296Z,2.33
2023-01-17T02:45:43.730Z,2.30
2023-01-17T02:48:12.382Z,2.27
2023-01-17T02:50:49.636Z,2.31
2023-01-17T02:53:35.158Z,2.31
2023-01-17T02:56:26.783Z,2.32
2023-01-17T02:59:05.841Z,2.32
2023-01-17T03:02:03.001Z,2.30
2023-01-17T03:04:48.816Z,2.28
2023-01-17T03:07:19.761Z,2.29
2023-01-17T03:09:49.062Z,2.29
2023-01-17T03:12:15.995Z,2.32
2023-01-17T03:14:42.992Z,2.32
2023-01-17T03:17:09.894Z,2.33
2023-01-17T03:19:36.965Z,2.33
2023-01-17T03:22:03.921Z,2.31
2023-01-17T03:24:30.956Z,2.36
2023-01-17T03:26:57.938Z,2.38
2023-01-17T03:29:24.899Z,2.38
2023-01-17T03:31:51.774Z,2.40
2023-01-17T03:34:18.754Z,2.43
2023-01-17T03:36:45.682Z,2.40
2023-01-17T03:39:12.736Z,2.40
2023-01-17T03:41:39.871Z,2.41
2023-01-17T03:44:06.844Z,2.41
2023-01-17T03:46:33.917Z,2.42
2023-01-17T03:49:00.779Z,2.42
2023-01-17T03:51:27.956Z,2.42
2023-01-17T03:53:54.855Z,2.43
2023-01-17T03:56:21.987Z,2.42
2023-01-17T03:58:49.112Z,2.46
2023-01-17T04:01:16.247Z,2.42
2023-01-17T04:03:43.235Z,2.46
2023-01-17T04:06:10.233Z,2.45
2023-01-17T04:08:37.079Z,2.44
2023-01-17T04:11:04.371Z,2.44
2023-01-17T04:13:31.280Z,2.46
2023-01-17T04:15:59.604Z,2.44
2023-01-17T04:18:26.648Z,2.46
2023-01-17T04:20:53.731Z,2.46
2023-01-17T04:23:20.655Z,2.48
2023-01-17T04:25:47.784Z,2.49
2023-01-17T04:28:14.879Z,2.48
2023-01-17T04:30:41.847Z,2.48
2023-01-17T04:33:08.763Z,2.48
2023-01-17T04:35:36.174Z,2.49
2023-01-17T04:38:03.567Z,2.50
2023-01-17T04:40:30.506Z,2.51
2023-01-17T04:42:58.184Z,2.49
2023-01-17T04:45:25.356Z,2.52
2023-01-17T04:47:52.243Z,2.52
2023-01-17T04:50:19.381Z,2.54
2023-01-17T04:52:46.391Z,2.52
2023-01-17T04:55:13.394Z,2.54
2023-01-17T04:57:40.273Z,2.52
2023-01-17T05:00:10.575Z,2.53
2023-01-17T05:02:37.762Z,2.53
2023-01-17T05:05:05.278Z,2.54
2023-01-17T05:07:32.846Z,2.53
2023-01-17T05:10:01.043Z,2.54
2023-01-17T05:12:28.436Z,2.56
2023-01-17T05:14:55.631Z,2.53
2023-01-17T05:17:22.731Z,2.53
2023-01-17T05:19:49.911Z,2.56
2023-01-17T05:22:17.012Z,2.56
2023-01-17T05:24:45.099Z,2.55
2023-01-17T05:27:13.080Z,2.53
2023-01-17T05:29:40.381Z,2.53
2023-01-17T05:32:07.442Z,2.54
2023-01-17T05:34:35.232Z,2.55
2023-01-17T05:37:02.275Z,2.55
2023-01-17T05:39:31.111Z,2.55
2023-01-17T05:41:59.633Z,2.56
2023-01-17T05:44:27.830Z,2.56
2023-01-17T05:46:55.834Z,2.57
2023-01-17T05:49:22.938Z,2.59
2023-01-17T05:51:50.117Z,2.60
2023-01-17T05:54:17.517Z,2.59
2023-01-17T05:56:44.818Z,2.61
2023-01-17T05:59:14.098Z,2.59
2023-01-17T06:01:41.342Z,2.59
2023-01-17T06:04:08.425Z,2.60
2023-01-17T06:06:35.474Z,2.60
2023-01-17T06:09:02.493Z,2.59
2023-01-17T06:11:29.445Z,2.58
2023-01-17T06:13:56.389Z,2.60
2023-01-17T06:16:23.409Z,2.60
2023-01-17T06:18:51.296Z,2.59
2023-01-17T06:21:18.689Z,2.59
2023-01-17T06:23:45.599Z,2.59
2023-01-17T06:26:12.562Z,2.59
2023-01-17T06:28:39.439Z,2.60
2023-01-17T06:31:09.684Z,2.62
2023-01-17T06:33:36.772Z,2.63
2023-01-17T06:36:03.987Z,2.61
2023-01-17T06:38:31.317Z,2.62
2023-01-17T06:41:00.489Z,2.64
2023-01-17T06:43:32.622Z,2.63
2023-01-17T06:46:00.901Z,2.66
2023-01-17T06:48:28.204Z,2.67
2023-01-17T06:50:55.242Z,2.69
2023-01-17T06:53:22.339Z,2.71
2023-01-17T06:55:49.349Z,2.70
2023-01-17T06:58:16.435Z,2.71
2023-01-17T07:00:44.194Z,2.74
2023-01-17T07:03:19.028Z,2.74
2023-01-17T07:05:46.191Z,2.73
2023-01-17T07:08:13.213Z,2.74
2023-01-17T07:10:40.298Z,2.75
2023-01-17T07:13:07.254Z,2.76
2023-01-17T07:15:34.330Z,2.77
2023-01-17T07:18:02.274Z,2.75
2023-01-17T07:20:29.416Z,2.79
2023-01-17T07:22:56.457Z,2.78
2023-01-17T07:25:23.543Z,2.78
2023-01-17T07:27:53.950Z,2.79
2023-01-17T07:30:21.774Z,2.81
2023-01-17T07:32:53.364Z,2.80
2023-01-17T07:35:20.540Z,2.84
2023-01-17T07:37:49.414Z,2.84
2023-01-17T07:40:17.713Z,2.84
2023-01-17T07:42:45.101Z,2.87
2023-01-17T07:45:13.844Z,2.85
2023-01-17T07:47:40.875Z,2.86
2023-01-17T07:50:09.603Z,2.85
2023-01-17T07:52:36.761Z,2.87
2023-01-17T07:55:04.890Z,2.88
2023-01-17T07:57:32.884Z,2.87
2023-01-17T08:00:00.081Z,2.88
2023-01-17T08:02:27.166Z,2.92
2023-01-17T08:04:54.236Z,2.90
2023-01-17T08:07:21.303Z,2.89
2023-01-17T08:09:50.263Z,2.92
2023-01-17T08:12:17.983Z,2.89
2023-01-17T08:14:45.206Z,2.93
2023-01-17T08:17:14.809Z,2.95
2023-01-17T08:19:41.915Z,2.97
2023-01-17T08:22:09.315Z,3.01
2023-01-17T08:24:37.697Z,3.01
2023-01-17T08:27:04.751Z,3.05
2023-01-17T08:29:31.794Z,3.08
2023-01-17T08:31:58.756Z,3.13
2023-01-17T08:34:26.521Z,3.17
2023-01-17T08:36:54.382Z,3.18
2023-01-17T08:39:22.223Z,3.19
2023-01-17T08:41:49.321Z,3.22
2023-01-17T08:44:16.432Z,3.27
2023-01-17T08:46:44.353Z,3.29
2023-01-17T08:49:12.261Z,3.31
2023-01-17T08:51:40.067Z,3.35
2023-01-17T08:54:07.415Z,3.34
2023-01-17T08:56:35.359Z,3.35
2023-01-17T08:59:03.276Z,3.37
2023-01-17T09:01:30.869Z,3.37
2023-01-17T09:03:57.862Z,3.38
2023-01-17T09:06:24.879Z,3.38
2023-01-17T09:08:52.464Z,3.40
2023-01-17T09:11:19.579Z,3.44
2023-01-17T09:13:46.527Z,3.46
2023-01-17T09:16:13.662Z,3.45
2023-01-17T09:18:40.842Z,3.48
2023-01-17T09:21:12.831Z,3.49
2023-01-17T09:23:40.014Z,3.50
2023-01-17T09:26:07.312Z,3.51
2023-01-17T09:28:41.007Z,3.52
2023-01-17T09:31:08.731Z,3.51
2023-01-17T09:33:36.253Z,3.53
2023-01-17T09:36:05.551Z,3.54
2023-01-17T09:38:33.143Z,3.57
2023-01-17T09:41:01.811Z,3.63
2023-01-17T09:43:41.087Z,3.66
2023-01-17T09:46:15.204Z,3.68
2023-01-17T09:48:43.433Z,3.71
2023-01-17T09:51:16.312Z,3.67
2023-01-17T09:53:44.375Z,3.65
2023-01-17T09:56:16.561Z,3.68
2023-01-17T09:59:03.973Z,3.71
2023-01-17T10:01:41.082Z,3.68
2023-01-17T10:04:24.529Z,3.73
2023-01-17T10:07:20.116Z,3.78
2023-01-17T10:09:56.505Z,3.79
2023-01-17T10:12:59.474Z,3.81
2023-01-17T10:16:08.476Z,3.81
2023-01-17T10:18:38.272Z,3.84
2023-01-17T10:21:23.633Z,3.87
2023-01-17T10:24:13.871Z,3.86
2023-01-17T10:26:42.090Z,3.87
2023-01-17T10:29:15.134Z,3.80
2023-01-17T10:31:51.193Z,3.83
2023-01-17T10:34:42.084Z,3.83
2023-01-17T10:37:21.595Z,3.85
2023-01-17T10:39:50.045Z,3.85
2023-01-17T10:42:17.013Z,3.87
2023-01-17T10:44:49.731Z,3.87
2023-01-17T10:47:24.514Z,3.89
2023-01-17T10:49:56.678Z,3.87
2023-01-17T10:53:01.271Z,3.88
2023-01-17T10:55:44.159Z,3.90
2023-01-17T10:58:14.336Z,3.92
2023-01-17T11:00:47.016Z,3.95
2023-01-17T11:03:17.228Z,3.92
2023-01-17T11:05:44.470Z,3.95
2023-01-17T11:08:13.659Z,3.95
2023-01-17T11:10:46.613Z,3.96
2023-01-17T11:13:22.611Z,3.98
2023-01-17T11:15:52.344Z,4.01
2023-01-17T11:18:21.578Z,4.00
2023-01-17T11:20:49.638Z,4.01
2023-01-17T11:23:17.859Z,4.05
2023-01-17T11:25:50.672Z,4.04
2023-01-17T11:28:30.824Z,4.02
2023-01-17T11:31:04.392Z,4.06
2023-01-17T11:33:47.030Z,4.05
2023-01-17T11:36:22.243Z,4.08
2023-01-17T11:39:27.920Z,4.02
2023-01-17T11:41:54.968Z,4.00
2023-01-17T11:44:33.897Z,3.95
2023-01-17T11:47:12.759Z,4.00
2023-01-17T11:49:45.371Z,3.98
2023-01-17T11:52:24.390Z,4.00
2023-01-17T11:54:53.996Z,4.02
2023-01-17T11:57:31.734Z,3.96
2023-01-17T12:00:29.632Z,3.99
2023-01-17T12:03:15.429Z,3.98
2023-01-17T12:05:42.517Z,4.01
2023-01-17T12:08:28.252Z,3.99
2023-01-17T12:11:22.294Z,3.97
2023-01-17T12:14:07.758Z,4.03
2023-01-17T12:17:12.233Z,4.02
2023-01-17T12:20:04.946Z,4.00
2023-01-17T12:22:50.771Z,3.97
2023-01-17T12:26:02.714Z,4.00
2023-01-17T12:28:32.632Z,4.03
2023-01-17T12:31:27.152Z,4.01
2023-01-17T12:33:59.612Z,4.03
2023-01-17T12:36:40.814Z,4.03
2023-01-17T12:39:12.022Z,4.03
2023-01-17T12:42:04.410Z,4.03
2023-01-17T12:45:03.026Z,4.00
2023-01-17T12:47:33.492Z,3.97
2023-01-17T12:50:21.773Z,3.88
2023-01-17T12:53:07.670Z,3.93
2023-01-17T12:55:50.043Z,3.92
2023-01-17T12:58:31.291Z,3.90
2023-01-17T13:01:24.034Z,3.89
2023-01-17T13:04:09.572Z,3.91
2023-01-17T13:07:10.793Z,3.91
2023-01-17T13:09:46.082Z,3.96
2023-01-17T13:12:15.714Z,3.93
2023-01-17T13:14:42.815Z,3.94
2023-01-17T13:17:48.396Z,3.98
2023-01-17T13:20:32.058Z,3.96
2023-01-17T13:23:13.012Z,3.97
2023-01-17T13:25:50.715Z,3.94
2023-01-17T13:28:42.109Z,3.94
2023-01-17T13:31:52.481Z,3.99
2023-01-17T13:34:35.059Z,3.94
2023-01-17T13:37:20.513Z,4.00
2023-01-17T13:40:09.305Z,3.98
2023-01-17T13:42:42.314Z,4.01
2023-01-17T13:45:18.756Z,3.98
2023-01-17T13:47:45.890Z,3.96
2023-01-17T13:50:31.332Z,3.97
2023-01-17T13:53:05.963Z,3.98
2023-01-17T13:55:47.862Z,3.94
2023-01-17T13:58:27.526Z,4.04
2023-01-17T14:00:55.179Z,4.02
2023-01-17T14:03:51.755Z,3.96
2023-01-17T14:06:40.719Z,3.98
2023-01-17T14:09:26.674Z,3.94
2023-01-17T14:12:19.632Z,3.96
2023-01-17T14:14:52.497Z,3.93
2023-01-17T14:17:23.200Z,3.96
2023-01-17T14:19:52.717Z,3.96
2023-01-17T14:22:19.700Z,3.96
2023-01-17T14:25:11.838Z,3.95
2023-01-17T14:27:45.350Z,4.01
2023-01-17T14:30:22.516Z,3.95
2023-01-17T14:33:01.682Z,3.89
2023-01-17T14:35:32.421Z,3.83
2023-01-17T14:38:05.489Z,3.86
2023-01-17T14:40:35.041Z,3.85
2023-01-17T14:43:44.228Z,3.86
2023-01-17T14:46:32.451Z,3.87
2023-01-17T14:49:06.277Z,3.85
2023-01-17T14:51:35.576Z,3.86
2023-01-17T14:54:08.633Z,3.85
2023-01-17T14:56:35.896Z,3.90
2023-01-17T14:59:22.221Z,3.86
2023-01-17T15:02:06.598Z,3.88
2023-01-17T15:04:39.747Z,3.90
2023-01-17T15:07:07.964Z,3.91
2023-01-17T15:09:37.258Z,3.91
2023-01-17T15:12:05.150Z,3.90
2023-01-17T15:14:38.819Z,3.90
2023-01-17T15:17:26.763Z,3.91
2023-01-17T15:20:01.891Z,3.90
2023-01-17T15:22:29.910Z,3.83
2023-01-17T15:24:57.073Z,3.81
2023-01-17T15:27:25.148Z,3.81
2023-01-17T15:29:52.497Z,3.83
2023-01-17T15:32:22.838Z,3.82
2023-01-17T15:34:51.874Z,3.80
2023-01-17T15:37:39.190Z,3.75
2023-01-17T15:40:12.455Z,3.73
2023-01-17T15:42:42.933Z,3.65
2023-01-17T15:45:17.215Z,3.67
2023-01-17T15:47:44.348Z,3.71
2023-01-17T15:50:30.372Z,3.66
2023-01-17T15:53:03.109Z,3.66
2023-01-17T15:55:36.695Z,3.70
2023-01-17T15:58:05.411Z,3.68
2023-01-17T16:00:42.123Z,3.68
2023-01-17T16:03:32.032Z,3.69
2023-01-17T16:06:01.241Z,3.68
2023-01-17T16:08:29.540Z,3.62
2023-01-17T16:11:02.328Z,3.66
2023-01-17T16:13:31.669Z,3.61
2023-01-17T16:16:24.015Z,3.63
2023-01-17T16:18:58.125Z,3.57
2023-01-17T16:21:27.619Z,3.57
2023-01-17T16:23:54.927Z,3.58
2023-01-17T16:26:22.493Z,3.57
2023-01-17T16:28:49.811Z,3.63
2023-01-17T16:31:18.183Z,3.65
2023-01-17T16:33:46.222Z,3.63
2023-01-17T16:36:15.255Z,3.64
2023-01-17T16:38:44.237Z,3.62
2023-01-17T16:41:11.386Z,3.62
2023-01-17T16:43:38.704Z,3.60
2023-01-17T16:46:06.187Z,3.55
2023-01-17T16:48:33.331Z,3.51
2023-01-17T16:51:06.080Z,3.48
2023-01-17T16:53:33.122Z,3.50
2023-01-17T16:56:07.236Z,3.51
2023-01-17T16:58:34.203Z,3.52
2023-01-17T17:01:01.212Z,3.52
2023-01-17T17:03:28.331Z,3.51
2023-01-17T17:05:57.331Z,3.52
2023-01-17T17:08:24.467Z,3.59
2023-01-17T17:10:51.482Z,3.62
2023-01-17T17:13:18.544Z,3.66
2023-01-17T17:15:45.590Z,3.67
2023-01-17T17:18:18.072Z,3.67
2023-01-17T17:20:45.521Z,3.71
2023-01-17T17:23:12.681Z,3.66
2023-01-17T17:25:39.755Z,3.61
2023-01-17T17:28:06.950Z,3.58
2023-01-17T17:30:34.719Z,3.52
2023-01-17T17:33:04.612Z,3.53
2023-01-17T17:35:34.527Z,3.50
2023-01-17T17:38:01.555Z,3.47
2023-01-17T17:40:29.699Z,3.39
2023-01-17T17:42:56.670Z,3.32
2023-01-17T17:45:23.722Z,3.23
2023-01-17T17:47:54.544Z,3.16
2023-01-17T17:50:21.792Z,3.08
2023-01-17T17:52:48.746Z,3.09
2023-01-17T17:55:19.122Z,3.00
2023-01-17T17:57:46.415Z,2.95
2023-01-17T18:00:13.784Z,2.83
2023-01-17T18:02:40.740Z,2.80
2023-01-17T18:05:08.317Z,2.79
2023-01-17T18:07:35.511Z,2.80
2023-01-17T18:10:03.818Z,2.81
2023-01-17T18:12:30.725Z,2.76
2023-01-17T18:14:57.635Z,2.73
2023-01-17T18:17:24.635Z,2.66
2023-01-17T18:19:52.801Z,2.57
2023-01-17T18:22:19.998Z,2.50
2023-01-17T18:24:46.855Z,2.41
2023-01-17T18:27:14.133Z,2.35
2023-01-17T18:29:41.170Z,2.34
2023-01-17T18:32:08.240Z,2.34
2023-01-17T18:34:35.976Z,2.41
2023-01-17T18:37:03.153Z,2.44
2023-01-17T18:39:30.627Z,2.44
2023-01-17T18:42:01.415Z,2.43
2023-01-17T18:44:29.990Z,2.41
2023-01-17T18:47:04.738Z,2.32
2023-01-17T18:49:33.793Z,2.27
2023-01-17T18:52:01.733Z,2.21
2023-01-17T18:54:30.111Z,2.19
2023-01-17T18:56:58.313Z,2.26
2023-01-17T18:59:26.335Z,2.36
2023-01-17T19:01:53.782Z,2.47
2023-01-17T19:04:24.467Z,2.52
2023-01-17T19:06:55.292Z,2.61
2023-01-17T19:09:23.010Z,2.62
2023-01-17T19:11:51.378Z,2.64
2023-01-17T19:14:18.492Z,2.66
2023-01-17T19:16:45.689Z,2.70
2023-01-17T19:19:14.853Z,2.71
2023-01-17T19:21:42.360Z,2.74
2023-01-17T19:24:10.843Z,2.76
2023-01-17T19:26:38.118Z,2.78
2023-01-17T19:29:06.912Z,2.77
2023-01-17T19:31:39.739Z,2.77
2023-01-17T19:34:06.876Z,2.72
2023-01-17T19:36:35.669Z,2.60
2023-01-17T19:39:06.202Z,2.54
2023-01-17T19:41:35.403Z,2.57
2023-01-17T19:44:07.321Z,2.61
2023-01-17T19:46:35.387Z,2.67
2023-01-17T19:49:03.196Z,2.70
2023-01-17T19:51:31.084Z,2.72
2023-01-17T19:54:04.369Z,2.74
2023-01-17T19:56:32.151Z,2.79
2023-01-17T19:59:02.088Z,2.80
2023-01-17T20:01:34.529Z,2.80
2023-01-17T20:04:02.853Z,2.79
2023-01-17T20:06:32.504Z,2.78
2023-01-17T20:09:00.103Z,2.80
2023-01-17T20:11:28.954Z,2.76
2023-01-17T20:13:57.855Z,2.64
2023-01-17T20:16:28.459Z,2.52
2023-01-17T20:18:56.207Z,2.44
2023-01-17T20:21:26.193Z,2.31
2023-01-17T20:23:54.721Z,2.23
2023-01-17T20:26:42.359Z,2.14
2023-01-17T20:29:17.451Z,2.05
2023-01-17T20:31:47.074Z,1.99
2023-01-17T20:34:19.824Z,1.93
2023-01-17T20:36:48.215Z,1.89
2023-01-17T20:39:16.093Z,1.88
2023-01-17T20:41:44.022Z,1.87
2023-01-17T20:44:14.903Z,1.86
2023-01-17T20:46:42.235Z,1.84
2023-01-17T20:49:18.907Z,1.83
2023-01-17T20:51:47.747Z,1.79
2023-01-17T20:54:18.025Z,1.75
2023-01-17T20:56:47.670Z,1.71
2023-01-17T20:59:17.931Z,1.67
2023-01-17T21:01:46.084Z,1.64
2023-01-17T21:04:16.263Z,1.57
2023-01-17T21:06:44.476Z,1.52
2023-01-17T21:09:14.443Z,1.44
2023-01-17T21:11:41.648Z,1.41
2023-01-17T21:14:08.772Z,1.35
2023-01-17T21:16:35.915Z,1.30
2023-01-17T21:19:03.533Z,1.28
2023-01-17T21:21:30.588Z,1.31
2023-01-17T21:23:59.420Z,1.35
2023-01-17T21:26:27.919Z,1.43
2023-01-17T21:28:55.894Z,1.52
2023-01-17T21:31:35.727Z,1.49
2023-01-17T21:34:05.053Z,1.47
2023-01-17T21:36:35.360Z,1.43
2023-01-17T21:39:05.078Z,1.41
2023-01-17T21:41:34.777Z,1.43
2023-01-17T21:44:04.182Z,1.49
2023-01-17T21:46:31.401Z,1.50
2023-01-17T21:48:58.372Z,1.51
2023-01-17T21:51:46.094Z,1.56
2023-01-17T21:54:13.053Z,1.58
2023-01-17T21:56:58.669Z,1.62
2023-01-17T21:59:25.739Z,1.63
2023-01-17T22:01:52.702Z,1.56
2023-01-17T22:04:20.274Z,1.48
2023-01-17T22:06:47.436Z,1.38
2023-01-17T22:09:15.298Z,1.29
2023-01-17T22:11:42.407Z,1.20
2023-01-17T22:14:09.599Z,1.16
2023-01-17T22:16:36.616Z,1.08
2023-01-17T22:19:03.653Z,1.02
2023-01-17T22:21:30.834Z,0.97
2023-01-17T22:23:59.602Z,0.90
2023-01-17T22:26:29.235Z,0.85
2023-01-17T22:28:56.670Z,0.83
2023-01-17T22:31:26.428Z,0.77
2023-01-17T22:34:04.391Z,0.75
2023-01-17T22:36:34.760Z,0.72
2023-01-17T22:39:01.941Z,0.66
2023-01-17T22:41:30.198Z,0.61
2023-01-17T22:43:58.984Z,0.52
2023-01-17T22:46:27.679Z,0.44
2023-01-17T22:48:55.967Z,0.38
2023-01-17T22:51:24.812Z,0.34
2023-01-17T22:53:54.173Z,0.29
2023-01-17T22:56:31.598Z,0.23
2023-01-17T22:59:00.975Z,0.21
2023-01-17T23:01:30.727Z,0.16
2023-01-17T23:03:59.631Z,0.11
2023-01-17T23:06:37.563Z,0.08
2023-01-17T23:09:15.710Z,0.05
2023-01-17T23:11:49.897Z,0.02
2023-01-17T23:14:22.241Z,-0.02
2023-01-17T23:17:21.937Z,-0.02
2023-01-17T23:19:51.237Z,0.01
2023-01-17T23:22:27.229Z,-0.02
2023-01-17T23:24:55.631Z,0.01
2023-01-17T23:28:01.707Z,-0.03
2023-01-17T23:30:39.325Z,-0.01
2023-01-17T23:33:08.974Z,-0.01
2023-01-17T23:35:42.203Z,0.00
2023-01-17T23:38:35.451Z,-0.05
2023-01-17T23:41:25.904Z,-0.08
2023-01-17T23:43:54.835Z,-0.14
2023-01-17T23:46:22.728Z,-0.20
2023-01-17T23:48:49.849Z,-0.25
2023-01-17T23:51:17.242Z,-0.26
2023-01-17T23:53:44.294Z,-0.26
2023-01-17T23:56:17.294Z,-0.25
2023-01-17T23:58:44.492Z,-0.24
